createdAt,value
2022-11-06T00:02:23.076Z,45.13
2022-11-06T00:04:50.378Z,47.20
2022-11-06T00:07:17.808Z,44.08
2022-11-06T00:09:44.996Z,40.97
2022-11-06T00:12:12.421Z,47.38
2022-11-06T00:14:39.622Z,44.58
2022-11-06T00:17:07.190Z,48.47
2022-11-06T00:19:34.353Z,45.65
2022-11-06T00:22:01.821Z,49.45
2022-11-06T00:24:29.005Z,57.55
2022-11-06T00:26:56.477Z,49.45
2022-11-06T00:29:23.813Z,53.05
2022-11-06T00:31:51.478Z,52.85
2022-11-06T00:34:18.625Z,53.42
2022-11-06T00:36:46.125Z,56.55
2022-11-06T00:39:13.343Z,47.05
2022-11-06T00:41:40.765Z,49.05
2022-11-06T00:44:10.313Z,51.83
2022-11-06T00:46:38.026Z,44.92
2022-11-06T00:49:05.508Z,53.70
2022-11-06T00:51:39.537Z,47.30
2022-11-06T00:54:09.722Z,50.60
2022-11-06T00:56:37.522Z,44.42
2022-11-06T00:59:10.115Z,47.70
2022-11-06T01:01:40.523Z,44.25
2022-11-06T01:04:12.524Z,48.47
2022-11-06T01:06:43.996Z,42.97
2022-11-06T01:09:14.290Z,40.72
2022-11-06T01:14:32.592Z,34.50
2022-11-06T01:17:00.091Z,41.58
2022-11-06T01:19:27.551Z,35.03
2022-11-06T01:21:55.380Z,34.25
2022-11-06T01:24:25.686Z,36.92
2022-11-06T01:27:24.272Z,37.33
2022-11-06T01:29:41.112Z,36.72
2022-11-06T01:32:09.049Z,34.85
2022-11-06T01:34:36.342Z,34.45
2022-11-06T01:37:03.756Z,31.08
2022-11-06T01:39:31.295Z,29.13
2022-11-06T01:41:59.061Z,28.85
2022-11-06T01:44:41.359Z,28.85
2022-11-06T01:47:25.717Z,25.85
2022-11-06T01:50:11.870Z,26.42
2022-11-06T01:52:39.648Z,28.70
2022-11-06T01:55:36.056Z,23.23
2022-11-06T01:58:07.691Z,27.63
2022-11-06T02:00:35.104Z,28.42
2022-11-06T02:03:03.271Z,23.13
2022-11-06T02:05:30.811Z,23.42
2022-11-06T02:08:00.569Z,24.67
2022-11-06T02:10:29.205Z,23.45
2022-11-06T02:13:17.706Z,23.80
2022-11-06T02:15:57.084Z,21.00
2022-11-06T02:18:43.031Z,27.52
2022-11-06T02:21:25.375Z,23.33
2022-11-06T02:24:08.639Z,26.52
2022-11-06T02:27:01.481Z,21.83
2022-11-06T02:29:38.763Z,28.65
2022-11-06T02:32:11.228Z,23.50
2022-11-06T02:34:40.660Z,21.98
2022-11-06T02:37:13.752Z,21.23
2022-11-06T02:39:44.566Z,21.67
2022-11-06T02:42:16.609Z,20.42
2022-11-06T02:44:47.105Z,20.80
2022-11-06T02:47:16.286Z,22.38
2022-11-06T02:49:49.707Z,22.35
2022-11-06T02:52:23.561Z,22.20
2022-11-06T02:55:11.334Z,22.40
2022-11-06T03:00:13.102Z,23.55
2022-11-06T03:02:47.594Z,21.42
2022-11-06T03:05:31.610Z,23.15
2022-11-06T03:08:07.845Z,26.15
2022-11-06T03:10:46.417Z,21.40
2022-11-06T03:13:24.894Z,20.55
2022-11-06T03:16:05.222Z,26.45
2022-11-06T03:18:52.506Z,22.02
2022-11-06T03:21:30.440Z,24.90
2022-11-06T03:24:16.331Z,20.92
2022-11-06T03:26:51.026Z,19.92
2022-11-06T03:29:41.412Z,23.80
2022-11-06T03:32:26.146Z,24.27
2022-11-06T03:35:24.406Z,25.23
2022-11-06T03:37:55.792Z,19.67
2022-11-06T03:40:26.329Z,20.48
2022-11-06T03:42:58.059Z,25.50
2022-11-06T03:45:27.922Z,23.40
2022-11-06T03:48:09.242Z,24.92
2022-11-06T03:50:50.565Z,20.85
2022-11-06T03:53:31.493Z,23.65
2022-11-06T03:56:06.490Z,23.33
2022-11-06T03:58:39.420Z,20.38
2022-11-06T04:01:10.999Z,45.10
2022-11-06T04:04:00.230Z,23.58
2022-11-06T04:06:31.938Z,21.90
2022-11-06T04:09:22.590Z,22.85
2022-11-06T04:12:09.692Z,27.77
2022-11-06T04:14:39.690Z,29.42
2022-11-06T04:17:12.323Z,24.25
2022-11-06T04:19:47.183Z,23.25
2022-11-06T04:22:44.963Z,26.17
2022-11-06T04:28:17.212Z,19.70
2022-11-06T04:31:07.462Z,21.27
2022-11-06T04:33:47.781Z,20.08
2022-11-06T04:36:21.537Z,20.55
2022-11-06T04:39:12.954Z,21.08
2022-11-06T04:41:55.592Z,19.38
2022-11-06T04:44:34.266Z,21.48
2022-11-06T04:47:12.107Z,25.00
2022-11-06T04:49:42.298Z,19.63
2022-11-06T04:52:15.029Z,18.77
2022-11-06T04:54:42.465Z,18.20
2022-11-06T04:57:10.934Z,19.83
2022-11-06T04:59:38.121Z,22.00
2022-11-06T05:02:06.358Z,22.05
2022-11-06T05:04:34.019Z,16.50
2022-11-06T05:07:01.571Z,20.30
2022-11-06T05:09:28.844Z,20.88
2022-11-06T05:11:56.526Z,23.48
2022-11-06T05:14:24.165Z,26.33
2022-11-06T05:16:51.834Z,25.27
2022-11-06T05:19:18.995Z,25.98
2022-11-06T05:22:05.134Z,23.40
2022-11-06T05:24:32.391Z,22.33
2022-11-06T05:27:00.052Z,22.55
2022-11-06T05:29:27.726Z,27.42
2022-11-06T05:31:55.333Z,29.23
2022-11-06T05:34:22.565Z,37.85
2022-11-06T05:36:49.976Z,30.30
2022-11-06T05:39:17.163Z,29.20
2022-11-06T05:41:44.631Z,29.42
2022-11-06T05:44:11.747Z,29.13
2022-11-06T05:46:54.607Z,25.55
2022-11-06T05:49:21.782Z,21.40
2022-11-06T05:51:49.319Z,20.55
2022-11-06T05:54:16.715Z,24.20
2022-11-06T05:56:44.240Z,22.80
2022-11-06T05:59:11.740Z,30.65
2022-11-06T06:01:39.468Z,22.50
2022-11-06T06:04:06.896Z,24.27
2022-11-06T06:06:34.585Z,28.48
2022-11-06T06:09:01.804Z,27.27
2022-11-06T06:11:29.667Z,26.70
2022-11-06T06:13:56.808Z,23.33
2022-11-06T06:16:24.287Z,24.20
2022-11-06T06:18:51.603Z,27.75
2022-11-06T06:21:19.097Z,29.08
2022-11-06T06:23:46.423Z,25.73
2022-11-06T06:26:13.874Z,29.70
2022-11-06T06:28:41.021Z,30.98
2022-11-06T06:31:09.419Z,28.13
2022-11-06T06:33:36.847Z,26.30
2022-11-06T06:36:05.755Z,26.70
2022-11-06T06:38:33.057Z,39.10
2022-11-06T06:41:08.226Z,38.03
2022-11-06T06:43:36.258Z,27.50
2022-11-06T06:46:06.833Z,25.58
2022-11-06T06:48:34.539Z,22.00
2022-11-06T06:51:03.293Z,22.27
2022-11-06T06:53:31.571Z,26.88
2022-11-06T06:56:00.903Z,65.97
2022-11-06T06:58:29.345Z,58.67
2022-11-06T07:01:02.441Z,26.80
2022-11-06T07:03:29.802Z,87.00
2022-11-06T07:05:58.974Z,40.05
2022-11-06T07:08:27.400Z,25.45
2022-11-06T07:11:03.523Z,28.55
2022-11-06T07:13:35.487Z,21.25
2022-11-06T07:16:08.037Z,20.65
2022-11-06T07:18:36.266Z,15.52
2022-11-06T07:21:08.559Z,15.93
2022-11-06T07:23:36.410Z,17.00
2022-11-06T07:26:05.357Z,17.92
2022-11-06T07:28:33.091Z,16.23
2022-11-06T07:31:02.013Z,207.48
2022-11-06T07:33:30.146Z,210.80
2022-11-06T07:36:03.847Z,95.75
2022-11-06T07:38:32.594Z,125.10
2022-11-06T07:41:05.728Z,208.40
2022-11-06T07:43:33.318Z,52.00
2022-11-06T07:46:06.121Z,29.27
2022-11-06T07:48:33.823Z,19.88
2022-11-06T07:51:08.911Z,104.43
2022-11-06T07:53:36.954Z,43.00
2022-11-06T07:56:04.648Z,20.23
2022-11-06T07:58:33.773Z,116.18
2022-11-06T08:01:01.421Z,18.38
2022-11-06T08:03:32.006Z,18.23
2022-11-06T08:06:03.067Z,18.65
2022-11-06T08:08:31.423Z,26.23
2022-11-06T08:11:07.629Z,25.55
2022-11-06T08:13:35.565Z,20.80
2022-11-06T08:16:13.040Z,17.92
2022-11-06T08:18:41.044Z,36.58
2022-11-06T08:21:09.077Z,17.25
2022-11-06T08:23:36.556Z,16.90
2022-11-06T08:26:07.532Z,18.40
2022-11-06T08:28:35.221Z,14.43
2022-11-06T08:31:07.282Z,14.43
2022-11-06T08:33:37.087Z,15.80
2022-11-06T08:36:06.470Z,18.00
2022-11-06T08:38:33.867Z,14.75
2022-11-06T08:41:09.566Z,15.20
2022-11-06T08:43:37.638Z,19.55
2022-11-06T08:46:06.674Z,17.85
2022-11-06T08:48:34.413Z,18.42
2022-11-06T08:51:01.998Z,14.98
2022-11-06T08:53:29.250Z,17.00
2022-11-06T08:55:56.781Z,14.32
2022-11-06T08:58:24.108Z,15.45
2022-11-06T09:00:51.971Z,16.17
2022-11-06T09:03:19.204Z,18.92
2022-11-06T09:05:46.846Z,18.42
2022-11-06T09:08:14.604Z,12.45
2022-11-06T09:10:46.040Z,15.55
2022-11-06T09:13:19.328Z,13.63
2022-11-06T09:15:47.114Z,11.10
2022-11-06T09:18:14.301Z,15.35
2022-11-06T09:20:41.927Z,16.73
2022-11-06T09:23:10.920Z,14.75
2022-11-06T09:25:39.037Z,10.27
2022-11-06T09:28:06.278Z,14.88
2022-11-06T09:30:33.730Z,27.15
2022-11-06T09:33:03.135Z,17.45
2022-11-06T09:35:33.265Z,71.28
2022-11-06T09:38:05.805Z,30.45
2022-11-06T09:40:59.007Z,15.98
2022-11-06T09:43:58.219Z,30.45
2022-11-06T09:46:23.524Z,80.40
2022-11-06T09:49:11.025Z,13.50
2022-11-06T09:51:41.539Z,15.25
2022-11-06T09:54:32.297Z,39.00
2022-11-06T09:57:10.169Z,32.72
2022-11-06T09:59:41.406Z,74.32
2022-11-06T10:02:40.320Z,30.08
2022-11-06T10:05:27.454Z,10.10
2022-11-06T10:10:46.666Z,91.35
2022-11-06T10:13:17.937Z,14.25
2022-11-06T10:16:03.135Z,15.05
2022-11-06T10:18:50.856Z,17.30
2022-11-06T10:24:15.247Z,12.38
2022-11-06T10:26:50.682Z,7.47
2022-11-06T10:29:40.541Z,10.18
2022-11-06T10:32:45.682Z,5.50
2022-11-06T10:35:20.453Z,10.95
2022-11-06T10:38:11.767Z,9.13
2022-11-06T10:40:40.049Z,10.48
2022-11-06T10:43:12.589Z,6.10
2022-11-06T10:45:43.750Z,11.25
2022-11-06T10:48:37.124Z,7.18
2022-11-06T10:54:02.998Z,7.60
2022-11-06T10:56:47.248Z,6.45
2022-11-06T10:59:16.426Z,9.50
2022-11-06T11:01:44.014Z,7.80
2022-11-06T11:04:11.350Z,10.18
2022-11-06T11:06:40.735Z,8.57
2022-11-06T11:09:27.325Z,11.35
2022-11-06T11:11:55.162Z,15.43
2022-11-06T11:14:24.939Z,16.30
2022-11-06T11:16:52.916Z,10.60
2022-11-06T11:19:41.989Z,12.45
2022-11-06T11:22:20.968Z,8.65
2022-11-06T11:25:09.109Z,9.68
2022-11-06T11:27:45.136Z,10.63
2022-11-06T11:30:26.538Z,12.25
2022-11-06T11:32:54.865Z,13.43
2022-11-06T11:35:28.712Z,13.27
2022-11-06T11:38:11.025Z,11.27
2022-11-06T11:40:39.445Z,10.43
2022-11-06T11:43:24.148Z,12.18
2022-11-06T11:46:19.094Z,9.98
2022-11-06T11:48:56.237Z,10.18
2022-11-06T11:54:15.563Z,8.73
2022-11-06T11:57:04.229Z,9.02
2022-11-06T11:59:49.198Z,10.27
2022-11-06T12:02:27.823Z,10.25
2022-11-06T12:05:07.951Z,6.60
2022-11-06T12:07:46.245Z,9.40
2022-11-06T12:10:31.925Z,9.23
2022-11-06T12:13:05.128Z,8.77
2022-11-06T12:15:44.715Z,8.20
2022-11-06T12:18:16.675Z,9.65
2022-11-06T12:21:08.910Z,7.47
2022-11-06T12:23:54.288Z,8.48
2022-11-06T12:26:53.700Z,7.90
2022-11-06T12:29:29.091Z,9.65
2022-11-06T12:32:18.104Z,10.43
2022-11-06T12:35:10.054Z,9.25
2022-11-06T12:37:50.518Z,9.65
2022-11-06T12:40:40.198Z,11.00
2022-11-06T12:43:39.096Z,7.30
2022-11-06T12:46:33.302Z,11.32
2022-11-06T12:49:38.156Z,11.43
2022-11-06T12:52:14.615Z,7.35
2022-11-06T12:54:44.806Z,7.97
2022-11-06T12:57:33.065Z,9.10
2022-11-06T13:00:06.731Z,7.03
2022-11-06T13:02:52.575Z,6.65
2022-11-06T13:05:41.373Z,12.05
2022-11-06T13:08:33.587Z,10.45
2022-11-06T13:11:15.992Z,8.63
2022-11-06T13:13:58.115Z,10.52
2022-11-06T13:16:33.828Z,10.18
2022-11-06T13:19:20.091Z,10.20
2022-11-06T13:21:59.488Z,14.70
2022-11-06T13:24:37.897Z,12.55
2022-11-06T13:27:29.835Z,13.55
2022-11-06T13:30:04.499Z,11.10
2022-11-06T13:32:34.966Z,11.35
2022-11-06T13:35:03.626Z,15.20
2022-11-06T13:37:43.917Z,14.68
2022-11-06T13:40:27.659Z,11.30
2022-11-06T13:43:12.557Z,14.18
2022-11-06T13:46:41.424Z,10.75
2022-11-06T13:49:21.001Z,15.55
2022-11-06T13:52:05.570Z,10.18
2022-11-06T13:54:38.908Z,10.88
2022-11-06T13:57:21.177Z,10.85
2022-11-06T14:00:03.002Z,11.18
2022-11-06T14:03:06.561Z,10.68
2022-11-06T14:05:45.535Z,11.98
2022-11-06T14:08:41.088Z,12.23
2022-11-06T14:11:27.144Z,14.55
2022-11-06T14:14:02.625Z,12.88
2022-11-06T14:16:34.408Z,13.30
2022-11-06T14:19:13.979Z,13.10
2022-11-06T14:21:48.720Z,13.23
2022-11-06T14:24:30.748Z,14.65
2022-11-06T14:26:59.610Z,15.48
2022-11-06T14:29:29.583Z,17.83
2022-11-06T14:32:41.299Z,18.38
2022-11-06T14:35:31.120Z,26.45
2022-11-06T14:38:35.417Z,18.50
2022-11-06T14:41:23.202Z,16.92
2022-11-06T14:43:52.758Z,14.98
2022-11-06T14:46:23.689Z,16.60
2022-11-06T14:48:54.096Z,13.60
2022-11-06T14:51:30.153Z,17.50
2022-11-06T14:54:18.369Z,15.80
2022-11-06T14:56:53.961Z,16.95
2022-11-06T14:59:28.918Z,18.70
2022-11-06T15:02:05.854Z,14.35
2022-11-06T15:04:35.088Z,16.23
2022-11-06T15:07:44.678Z,19.42
2022-11-06T15:10:44.191Z,20.95
2022-11-06T15:13:18.519Z,22.00
2022-11-06T15:15:52.822Z,18.90
2022-11-06T15:18:23.699Z,20.33
2022-11-06T15:20:55.532Z,19.13
2022-11-06T15:23:34.553Z,19.50
2022-11-06T15:26:23.225Z,17.23
2022-11-06T15:29:12.034Z,20.17
2022-11-06T15:31:40.707Z,18.98
2022-11-06T15:34:20.598Z,24.92
2022-11-06T15:36:53.620Z,21.45
2022-11-06T15:39:29.922Z,25.13
2022-11-06T15:41:57.647Z,24.07
2022-11-06T15:44:25.620Z,21.58
2022-11-06T15:46:57.417Z,23.40
2022-11-06T15:49:25.839Z,23.10
2022-11-06T15:51:53.033Z,26.15
2022-11-06T15:54:40.035Z,22.02
2022-11-06T15:57:22.675Z,29.48
2022-11-06T15:59:50.754Z,24.00
2022-11-06T16:02:22.819Z,27.42
2022-11-06T16:04:51.410Z,24.08
2022-11-06T16:07:19.552Z,26.60
2022-11-06T16:09:47.663Z,31.10
2022-11-06T16:12:17.741Z,28.38
2022-11-06T16:14:45.699Z,30.58
2022-11-06T16:17:25.687Z,30.38
2022-11-06T16:19:56.701Z,26.38
2022-11-06T16:22:32.385Z,30.08
2022-11-06T16:25:03.056Z,29.48
2022-11-06T16:27:35.112Z,27.08
2022-11-06T16:30:06.617Z,29.25
2022-11-06T16:32:43.081Z,29.05
2022-11-06T16:35:34.797Z,29.40
2022-11-06T16:38:39.841Z,35.45
2022-11-06T16:41:06.244Z,28.13
2022-11-06T16:43:33.819Z,31.85
2022-11-06T16:46:09.465Z,29.98
2022-11-06T16:48:36.735Z,34.65
2022-11-06T16:51:10.340Z,40.38
2022-11-06T16:54:02.015Z,30.85
2022-11-06T16:56:34.703Z,33.85
2022-11-06T16:59:03.759Z,60.30
2022-11-06T17:01:43.650Z,40.15
2022-11-06T17:04:22.444Z,48.25
2022-11-06T17:06:51.687Z,59.22
2022-11-06T17:09:36.005Z,62.47
2022-11-06T17:12:04.167Z,83.68
2022-11-06T17:14:33.024Z,68.03
2022-11-06T17:17:02.203Z,50.65
2022-11-06T17:19:30.218Z,73.28
2022-11-06T17:21:58.250Z,44.83
2022-11-06T17:24:41.474Z,74.78
2022-11-06T17:27:09.351Z,79.20
2022-11-06T17:29:36.920Z,54.25
2022-11-06T17:32:04.606Z,53.30
2022-11-06T17:34:31.839Z,52.30
2022-11-06T17:36:59.398Z,98.03
2022-11-06T17:39:26.600Z,58.70
2022-11-06T17:41:54.710Z,41.25
2022-11-06T17:44:22.517Z,44.03
2022-11-06T17:46:50.785Z,73.47
2022-11-06T17:49:18.913Z,50.83
2022-11-06T17:51:53.219Z,51.15
2022-11-06T17:54:23.370Z,41.08
2022-11-06T17:56:51.670Z,45.72
2022-11-06T17:59:19.246Z,51.25
2022-11-06T18:01:50.733Z,45.72
2022-11-06T18:04:19.639Z,61.80
2022-11-06T18:06:52.217Z,67.75
2022-11-06T18:09:21.156Z,48.63
2022-11-06T18:11:53.531Z,73.15
2022-11-06T18:14:21.865Z,56.75
2022-11-06T18:16:49.924Z,51.92
2022-11-06T18:19:19.899Z,57.47
2022-11-06T18:21:47.627Z,44.72
2022-11-06T18:24:15.220Z,56.17
2022-11-06T18:26:42.618Z,46.42
2022-11-06T18:29:11.753Z,49.65
2022-11-06T18:31:39.571Z,58.05
2022-11-06T18:34:07.190Z,63.83
2022-11-06T18:36:36.832Z,50.75
2022-11-06T18:39:05.714Z,53.05
2022-11-06T18:41:34.565Z,48.10
2022-11-06T18:44:01.862Z,52.08
2022-11-06T18:46:30.318Z,41.05
2022-11-06T18:48:58.344Z,47.80
2022-11-06T18:51:35.253Z,64.70
2022-11-06T18:54:09.744Z,61.97
2022-11-06T18:56:38.824Z,59.53
2022-11-06T18:59:08.693Z,56.13
2022-11-06T19:01:36.377Z,56.40
2022-11-06T19:04:04.831Z,59.83
2022-11-06T19:06:32.820Z,49.75
2022-11-06T19:09:00.183Z,51.03
2022-11-06T19:11:27.675Z,65.57
2022-11-06T19:13:55.027Z,93.28
2022-11-06T19:16:22.517Z,57.03
2022-11-06T19:21:30.527Z,65.82
2022-11-06T19:24:05.978Z,46.58
2022-11-06T19:26:35.529Z,48.58
2022-11-06T19:29:04.317Z,60.95
2022-11-06T19:31:33.242Z,51.53
2022-11-06T19:34:01.759Z,40.00
2022-11-06T19:36:31.974Z,35.13
2022-11-06T19:38:59.300Z,36.75
2022-11-06T19:41:27.967Z,43.50
2022-11-06T19:43:55.327Z,49.65
2022-11-06T19:46:27.216Z,49.17
2022-11-06T19:48:55.599Z,40.40
2022-11-06T19:51:22.825Z,32.42
2022-11-06T19:53:53.382Z,49.08
2022-11-06T19:56:21.859Z,46.67
2022-11-06T19:58:50.850Z,57.10
2022-11-06T20:01:19.625Z,40.92
2022-11-06T20:03:47.347Z,44.17
2022-11-06T20:06:15.495Z,52.47
2022-11-06T20:08:43.493Z,41.38
2022-11-06T20:11:13.645Z,48.80
2022-11-06T20:13:41.941Z,39.65
2022-11-06T20:16:12.314Z,44.05
2022-11-06T20:18:39.869Z,39.28
2022-11-06T20:21:10.760Z,46.92
2022-11-06T20:23:38.703Z,60.92
2022-11-06T20:26:06.812Z,53.17
2022-11-06T20:28:34.949Z,46.72
2022-11-06T20:31:07.007Z,97.68
2022-11-06T20:33:35.418Z,54.63
2022-11-06T20:36:14.837Z,35.25
2022-11-06T20:38:45.130Z,38.40
2022-11-06T20:41:25.011Z,39.65
2022-11-06T20:43:56.185Z,28.90
2022-11-06T20:46:24.480Z,34.38
2022-11-06T20:48:52.671Z,42.35
2022-11-06T20:51:23.595Z,41.90
2022-11-06T20:53:54.016Z,50.00
2022-11-06T20:56:24.564Z,51.90
2022-11-06T20:58:54.654Z,38.67
2022-11-06T21:01:27.220Z,58.70
2022-11-06T21:03:58.331Z,32.70
2022-11-06T21:06:27.182Z,33.47
2022-11-06T21:08:55.067Z,27.85
2022-11-06T21:11:25.040Z,33.53
2022-11-06T21:13:54.292Z,30.48
2022-11-06T21:16:30.940Z,25.98
2022-11-06T21:19:04.071Z,23.52
2022-11-06T21:21:34.141Z,24.38
2022-11-06T21:24:02.734Z,31.17
2022-11-06T21:26:32.742Z,25.75
2022-11-06T21:29:02.228Z,32.42
2022-11-06T21:31:31.040Z,27.15
2022-11-06T21:34:00.669Z,30.33
2022-11-06T21:36:31.184Z,40.05
2022-11-06T21:39:02.022Z,27.58
2022-11-06T21:41:31.170Z,36.38
2022-11-06T21:43:58.775Z,41.75
2022-11-06T21:46:26.014Z,36.08
2022-11-06T21:48:53.698Z,28.55
2022-11-06T21:51:26.977Z,28.60
2022-11-06T21:54:14.215Z,25.55
2022-11-06T21:56:42.801Z,35.53
2022-11-06T21:59:13.376Z,32.63
2022-11-06T22:01:41.317Z,40.58
2022-11-06T22:04:09.930Z,38.97
2022-11-06T22:06:41.446Z,38.92
2022-11-06T22:09:10.398Z,42.80
2022-11-06T22:11:39.919Z,44.92
2022-11-06T22:14:13.447Z,44.13
2022-11-06T22:16:43.438Z,41.20
2022-11-06T22:19:11.665Z,39.95
2022-11-06T22:21:39.917Z,43.50
2022-11-06T22:24:08.046Z,41.75
2022-11-06T22:26:36.196Z,41.20
2022-11-06T22:29:09.454Z,40.67
2022-11-06T22:31:36.657Z,39.17
2022-11-06T22:34:04.637Z,39.63
2022-11-06T22:36:32.222Z,42.58
2022-11-06T22:39:03.667Z,43.08
2022-11-06T22:41:30.927Z,42.50
2022-11-06T22:43:59.718Z,38.78
2022-11-06T22:46:28.907Z,39.70
2022-11-06T22:48:56.931Z,40.53
2022-11-06T22:51:27.064Z,39.75
2022-11-06T22:53:54.926Z,37.83
2022-11-06T22:56:23.819Z,41.90
2022-11-06T22:59:03.610Z,44.92
2022-11-06T23:01:37.240Z,49.22
2022-11-06T23:06:35.810Z,35.42
2022-11-06T23:09:03.261Z,104.85
2022-11-06T23:11:30.750Z,93.78
2022-11-06T23:14:04.638Z,45.28
2022-11-06T23:16:53.549Z,32.70
2022-11-06T23:19:21.185Z,28.77
2022-11-06T23:21:48.775Z,32.38
2022-11-06T23:24:16.116Z,35.75
2022-11-06T23:26:45.442Z,39.65
2022-11-06T23:29:12.662Z,38.00
2022-11-06T23:31:41.274Z,36.00
2022-11-06T23:34:08.888Z,41.10
2022-11-06T23:36:36.637Z,37.03
2022-11-06T23:39:03.911Z,41.13
2022-11-06T23:41:43.105Z,33.88
2022-11-06T23:44:30.336Z,36.88
2022-11-06T23:49:25.435Z,37.80
2022-11-06T23:51:53.403Z,35.55
2022-11-06T23:54:20.575Z,39.83
2022-11-06T23:56:48.192Z,43.90
2022-11-06T23:59:15.347Z,42.15
